sensor_id;sensor_type;location;lat;lon;timestamp;P1;durP1;ratioP1;P2;durP2;ratioP2
37339;SDS011;23223;51.006;7.610;2024-01-06T00:02:23;5.78;;;3.03;;
37339;SDS011;23223;51.006;7.610;2024-01-06T00:04:49;4.47;;;2.95;;
37339;SDS011;23223;51.006;7.610;2024-01-06T00:07:14;5.28;;;3.35;;
37339;SDS011;23223;51.006;7.610;2024-01-06T00:09:40;4.38;;;3.53;;
37339;SDS011;23223;51.006;7.610;2024-01-06T00:12:05;4.72;;;3.83;;
37339;SDS011;23223;51.006;7.610;2024-01-06T00:14:31;6.30;;;3.50;;
37339;SDS011;23223;51.006;7.610;2024-01-06T00:16:57;3.45;;;3.15;;
37339;SDS011;23223;51.006;7.610;2024-01-06T00:19:22;6.65;;;3.10;;
37339;SDS011;23223;51.006;7.610;2024-01-06T00:21:48;4.50;;;3.22;;
37339;SDS011;23223;51.006;7.610;2024-01-06T00:24:14;4.18;;;2.83;;
37339;SDS011;23223;51.006;7.610;2024-01-06T00:26:39;7.13;;;2.83;;
37339;SDS011;23223;51.006;7.610;2024-01-06T00:29:05;4.63;;;3.35;;
37339;SDS011;23223;51.006;7.610;2024-01-06T00:31:30;3.42;;;2.83;;
37339;SDS011;23223;51.006;7.610;2024-01-06T00:33:56;3.45;;;2.70;;
37339;SDS011;23223;51.006;7.610;2024-01-06T00:36:22;5.03;;;3.50;;
37339;SDS011;23223;51.006;7.610;2024-01-06T00:38:47;5.90;;;3.70;;
37339;SDS011;23223;51.006;7.610;2024-01-06T00:41:13;6.00;;;3.63;;
37339;SDS011;23223;51.006;7.610;2024-01-06T00:43:39;5.28;;;3.15;;
37339;SDS011;23223;51.006;7.610;2024-01-06T00:46:04;6.15;;;2.80;;
37339;SDS011;23223;51.006;7.610;2024-01-06T00:48:30;10.23;;;3.42;;
37339;SDS011;23223;51.006;7.610;2024-01-06T00:50:55;5.13;;;3.45;;
37339;SDS011;23223;51.006;7.610;2024-01-06T00:53:21;6.72;;;3.50;;
37339;SDS011;23223;51.006;7.610;2024-01-06T00:55:47;6.68;;;3.90;;
37339;SDS011;23223;51.006;7.610;2024-01-06T00:58:12;6.63;;;3.40;;
37339;SDS011;23223;51.006;7.610;2024-01-06T01:00:38;6.43;;;3.33;;
37339;SDS011;23223;51.006;7.610;2024-01-06T01:03:04;4.95;;;3.30;;
37339;SDS011;23223;51.006;7.610;2024-01-06T01:05:30;5.00;;;2.97;;
37339;SDS011;23223;51.006;7.610;2024-01-06T01:07:55;5.00;;;3.50;;
37339;SDS011;23223;51.006;7.610;2024-01-06T01:10:23;4.03;;;3.03;;
37339;SDS011;23223;51.006;7.610;2024-01-06T01:12:49;4.57;;;3.30;;
37339;SDS011;23223;51.006;7.610;2024-01-06T01:15:14;4.80;;;3.15;;
37339;SDS011;23223;51.006;7.610;2024-01-06T01:17:40;4.90;;;3.30;;
37339;SDS011;23223;51.006;7.610;2024-01-06T01:20:06;5.13;;;3.05;;
37339;SDS011;23223;51.006;7.610;2024-01-06T01:22:32;3.25;;;2.95;;
37339;SDS011;23223;51.006;7.610;2024-01-06T01:24:57;5.18;;;2.60;;
37339;SDS011;23223;51.006;7.610;2024-01-06T01:27:23;3.45;;;1.92;;
37339;SDS011;23223;51.006;7.610;2024-01-06T01:29:48;4.65;;;2.95;;
37339;SDS011;23223;51.006;7.610;2024-01-06T01:32:17;6.55;;;3.28;;
37339;SDS011;23223;51.006;7.610;2024-01-06T01:34:43;4.03;;;2.78;;
37339;SDS011;23223;51.006;7.610;2024-01-06T01:37:09;4.00;;;2.67;;
37339;SDS011;23223;51.006;7.610;2024-01-06T01:39:34;3.17;;;2.50;;
37339;SDS011;23223;51.006;7.610;2024-01-06T01:42:00;4.43;;;2.58;;
37339;SDS011;23223;51.006;7.610;2024-01-06T01:44:25;4.57;;;2.55;;
37339;SDS011;23223;51.006;7.610;2024-01-06T01:46:51;4.20;;;2.60;;
37339;SDS011;23223;51.006;7.610;2024-01-06T01:49:17;5.28;;;3.03;;
37339;SDS011;23223;51.006;7.610;2024-01-06T01:51:42;3.72;;;2.70;;
37339;SDS011;23223;51.006;7.610;2024-01-06T01:54:09;5.55;;;2.95;;
37339;SDS011;23223;51.006;7.610;2024-01-06T01:56:34;3.70;;;2.92;;
37339;SDS011;23223;51.006;7.610;2024-01-06T01:59:10;6.88;;;3.40;;
37339;SDS011;23223;51.006;7.610;2024-01-06T02:01:38;5.35;;;3.00;;
37339;SDS011;23223;51.006;7.610;2024-01-06T02:04:07;10.82;;;4.00;;
37339;SDS011;23223;51.006;7.610;2024-01-06T02:06:33;5.40;;;3.30;;
37339;SDS011;23223;51.006;7.610;2024-01-06T02:08:59;6.65;;;3.35;;
37339;SDS011;23223;51.006;7.610;2024-01-06T02:11:24;6.90;;;3.42;;
37339;SDS011;23223;51.006;7.610;2024-01-06T02:13:50;3.13;;;2.22;;
37339;SDS011;23223;51.006;7.610;2024-01-06T02:16:15;3.45;;;2.15;;
37339;SDS011;23223;51.006;7.610;2024-01-06T02:18:41;4.53;;;2.78;;
37339;SDS011;23223;51.006;7.610;2024-01-06T02:21:07;5.43;;;3.78;;
37339;SDS011;23223;51.006;7.610;2024-01-06T02:23:34;4.82;;;3.80;;
37339;SDS011;23223;51.006;7.610;2024-01-06T02:26:00;5.78;;;3.45;;
37339;SDS011;23223;51.006;7.610;2024-01-06T02:28:26;5.60;;;3.53;;
37339;SDS011;23223;51.006;7.610;2024-01-06T02:30:52;5.40;;;3.30;;
37339;SDS011;23223;51.006;7.610;2024-01-06T02:33:17;7.53;;;3.10;;
37339;SDS011;23223;51.006;7.610;2024-01-06T02:35:44;4.22;;;2.80;;
37339;SDS011;23223;51.006;7.610;2024-01-06T02:38:10;4.57;;;3.00;;
37339;SDS011;23223;51.006;7.610;2024-01-06T02:40:36;5.85;;;3.50;;
37339;SDS011;23223;51.006;7.610;2024-01-06T02:43:02;5.47;;;3.60;;
37339;SDS011;23223;51.006;7.610;2024-01-06T02:45:27;3.72;;;3.20;;
37339;SDS011;23223;51.006;7.610;2024-01-06T02:47:53;6.22;;;3.47;;
37339;SDS011;23223;51.006;7.610;2024-01-06T02:50:19;7.13;;;3.97;;
37339;SDS011;23223;51.006;7.610;2024-01-06T02:52:44;7.15;;;4.82;;
37339;SDS011;23223;51.006;7.610;2024-01-06T02:55:12;4.90;;;3.75;;
37339;SDS011;23223;51.006;7.610;2024-01-06T02:57:39;6.30;;;4.13;;
37339;SDS011;23223;51.006;7.610;2024-01-06T03:00:06;5.07;;;3.78;;
37339;SDS011;23223;51.006;7.610;2024-01-06T03:02:32;10.93;;;4.75;;
37339;SDS011;23223;51.006;7.610;2024-01-06T03:04:58;3.38;;;2.97;;
37339;SDS011;23223;51.006;7.610;2024-01-06T03:07:23;5.93;;;4.35;;
37339;SDS011;23223;51.006;7.610;2024-01-06T03:09:49;4.63;;;3.95;;
37339;SDS011;23223;51.006;7.610;2024-01-06T03:12:15;7.20;;;4.40;;
37339;SDS011;23223;51.006;7.610;2024-01-06T03:14:40;6.07;;;4.05;;
37339;SDS011;23223;51.006;7.610;2024-01-06T03:17:06;5.10;;;3.80;;
37339;SDS011;23223;51.006;7.610;2024-01-06T03:19:31;5.45;;;3.65;;
37339;SDS011;23223;51.006;7.610;2024-01-06T03:21:57;5.35;;;4.00;;
37339;SDS011;23223;51.006;7.610;2024-01-06T03:24:23;4.22;;;3.83;;
37339;SDS011;23223;51.006;7.610;2024-01-06T03:26:49;9.80;;;4.28;;
37339;SDS011;23223;51.006;7.610;2024-01-06T03:29:15;7.25;;;5.35;;
37339;SDS011;23223;51.006;7.610;2024-01-06T03:31:41;11.63;;;6.82;;
37339;SDS011;23223;51.006;7.610;2024-01-06T03:34:08;5.35;;;4.85;;
37339;SDS011;23223;51.006;7.610;2024-01-06T03:36:33;7.25;;;5.63;;
37339;SDS011;23223;51.006;7.610;2024-01-06T03:38:59;10.73;;;6.45;;
37339;SDS011;23223;51.006;7.610;2024-01-06T03:41:25;9.25;;;6.75;;
37339;SDS011;23223;51.006;7.610;2024-01-06T03:43:50;6.90;;;5.43;;
37339;SDS011;23223;51.006;7.610;2024-01-06T03:46:16;6.93;;;5.10;;
37339;SDS011;23223;51.006;7.610;2024-01-06T03:48:42;8.38;;;5.00;;
37339;SDS011;23223;51.006;7.610;2024-01-06T03:51:07;6.68;;;5.22;;
37339;SDS011;23223;51.006;7.610;2024-01-06T03:53:34;9.75;;;5.32;;
37339;SDS011;23223;51.006;7.610;2024-01-06T03:55:59;6.68;;;4.88;;
37339;SDS011;23223;51.006;7.610;2024-01-06T03:58:25;6.15;;;4.88;;
37339;SDS011;23223;51.006;7.610;2024-01-06T04:00:51;6.47;;;5.72;;
37339;SDS011;23223;51.006;7.610;2024-01-06T04:03:16;5.45;;;4.65;;
37339;SDS011;23223;51.006;7.610;2024-01-06T04:05:42;6.57;;;5.43;;
37339;SDS011;23223;51.006;7.610;2024-01-06T04:08:07;8.07;;;5.95;;
37339;SDS011;23223;51.006;7.610;2024-01-06T04:10:33;8.82;;;6.32;;
37339;SDS011;23223;51.006;7.610;2024-01-06T04:12:59;9.27;;;6.50;;
37339;SDS011;23223;51.006;7.610;2024-01-06T04:15:24;6.28;;;5.68;;
37339;SDS011;23223;51.006;7.610;2024-01-06T04:17:50;8.65;;;6.00;;
37339;SDS011;23223;51.006;7.610;2024-01-06T04:20:15;10.25;;;6.15;;
37339;SDS011;23223;51.006;7.610;2024-01-06T04:22:41;7.13;;;6.20;;
37339;SDS011;23223;51.006;7.610;2024-01-06T04:25:07;5.35;;;4.00;;
37339;SDS011;23223;51.006;7.610;2024-01-06T04:27:32;7.03;;;5.90;;
37339;SDS011;23223;51.006;7.610;2024-01-06T04:29:59;7.60;;;6.35;;
37339;SDS011;23223;51.006;7.610;2024-01-06T04:32:25;8.82;;;6.30;;
37339;SDS011;23223;51.006;7.610;2024-01-06T04:34:50;7.82;;;6.30;;
37339;SDS011;23223;51.006;7.610;2024-01-06T04:37:16;7.07;;;6.15;;
37339;SDS011;23223;51.006;7.610;2024-01-06T04:39:42;8.48;;;6.85;;
37339;SDS011;23223;51.006;7.610;2024-01-06T04:42:07;9.43;;;7.13;;
37339;SDS011;23223;51.006;7.610;2024-01-06T04:44:33;8.75;;;6.65;;
37339;SDS011;23223;51.006;7.610;2024-01-06T04:46:58;10.02;;;6.00;;
37339;SDS011;23223;51.006;7.610;2024-01-06T04:49:24;4.97;;;3.55;;
37339;SDS011;23223;51.006;7.610;2024-01-06T04:51:49;9.05;;;7.20;;
37339;SDS011;23223;51.006;7.610;2024-01-06T04:54:16;8.20;;;7.15;;
37339;SDS011;23223;51.006;7.610;2024-01-06T04:56:42;8.73;;;6.50;;
37339;SDS011;23223;51.006;7.610;2024-01-06T04:59:07;11.13;;;7.88;;
37339;SDS011;23223;51.006;7.610;2024-01-06T05:01:33;10.18;;;7.30;;
37339;SDS011;23223;51.006;7.610;2024-01-06T05:03:58;5.22;;;4.72;;
37339;SDS011;23223;51.006;7.610;2024-01-06T05:06:24;6.57;;;5.35;;
37339;SDS011;23223;51.006;7.610;2024-01-06T05:08:50;7.25;;;6.47;;
37339;SDS011;23223;51.006;7.610;2024-01-06T05:11:16;10.52;;;7.57;;
37339;SDS011;23223;51.006;7.610;2024-01-06T05:13:41;9.75;;;7.45;;
37339;SDS011;23223;51.006;7.610;2024-01-06T05:16:08;8.65;;;6.72;;
37339;SDS011;23223;51.006;7.610;2024-01-06T05:18:34;8.90;;;7.35;;
37339;SDS011;23223;51.006;7.610;2024-01-06T05:20:59;10.85;;;7.88;;
37339;SDS011;23223;51.006;7.610;2024-01-06T05:23:25;10.98;;;8.10;;
37339;SDS011;23223;51.006;7.610;2024-01-06T05:25:51;10.20;;;8.23;;
37339;SDS011;23223;51.006;7.610;2024-01-06T05:28:16;14.25;;;8.65;;
37339;SDS011;23223;51.006;7.610;2024-01-06T05:30:42;7.13;;;6.03;;
37339;SDS011;23223;51.006;7.610;2024-01-06T05:33:11;10.13;;;7.55;;
37339;SDS011;23223;51.006;7.610;2024-01-06T05:35:40;6.47;;;4.97;;
37339;SDS011;23223;51.006;7.610;2024-01-06T05:38:06;11.95;;;8.95;;
37339;SDS011;23223;51.006;7.610;2024-01-06T05:40:31;11.68;;;8.65;;
37339;SDS011;23223;51.006;7.610;2024-01-06T05:42:57;9.75;;;8.50;;
37339;SDS011;23223;51.006;7.610;2024-01-06T05:45:22;10.82;;;8.75;;
37339;SDS011;23223;51.006;7.610;2024-01-06T05:47:48;9.77;;;7.88;;
37339;SDS011;23223;51.006;7.610;2024-01-06T05:50:17;10.77;;;8.60;;
37339;SDS011;23223;51.006;7.610;2024-01-06T05:52:42;11.25;;;8.65;;
37339;SDS011;23223;51.006;7.610;2024-01-06T05:55:08;10.98;;;9.10;;
37339;SDS011;23223;51.006;7.610;2024-01-06T05:57:34;15.57;;;10.30;;
37339;SDS011;23223;51.006;7.610;2024-01-06T06:00:00;10.77;;;8.98;;
37339;SDS011;23223;51.006;7.610;2024-01-06T06:02:25;11.15;;;9.45;;
37339;SDS011;23223;51.006;7.610;2024-01-06T06:04:51;10.60;;;9.43;;
37339;SDS011;23223;51.006;7.610;2024-01-06T06:07:17;15.20;;;10.15;;
37339;SDS011;23223;51.006;7.610;2024-01-06T06:09:43;13.02;;;9.63;;
37339;SDS011;23223;51.006;7.610;2024-01-06T06:12:12;13.60;;;10.27;;
37339;SDS011;23223;51.006;7.610;2024-01-06T06:14:38;14.80;;;10.48;;
37339;SDS011;23223;51.006;7.610;2024-01-06T06:17:04;13.30;;;10.88;;
37339;SDS011;23223;51.006;7.610;2024-01-06T06:19:29;13.60;;;9.90;;
37339;SDS011;23223;51.006;7.610;2024-01-06T06:21:55;7.30;;;5.93;;
37339;SDS011;23223;51.006;7.610;2024-01-06T06:24:20;10.52;;;8.38;;
37339;SDS011;23223;51.006;7.610;2024-01-06T06:26:46;10.73;;;9.02;;
37339;SDS011;23223;51.006;7.610;2024-01-06T06:29:11;12.20;;;9.43;;
37339;SDS011;23223;51.006;7.610;2024-01-06T06:31:37;12.85;;;9.68;;
37339;SDS011;23223;51.006;7.610;2024-01-06T06:34:03;11.88;;;9.35;;
37339;SDS011;23223;51.006;7.610;2024-01-06T06:36:28;11.43;;;9.32;;
37339;SDS011;23223;51.006;7.610;2024-01-06T06:38:54;12.75;;;9.77;;
37339;SDS011;23223;51.006;7.610;2024-01-06T06:41:19;11.10;;;8.07;;
37339;SDS011;23223;51.006;7.610;2024-01-06T06:43:45;15.95;;;10.10;;
37339;SDS011;23223;51.006;7.610;2024-01-06T06:46:10;11.77;;;8.98;;
37339;SDS011;23223;51.006;7.610;2024-01-06T06:48:36;13.55;;;10.70;;
37339;SDS011;23223;51.006;7.610;2024-01-06T06:51:02;12.95;;;9.73;;
37339;SDS011;23223;51.006;7.610;2024-01-06T06:53:28;13.52;;;10.43;;
37339;SDS011;23223;51.006;7.610;2024-01-06T06:55:53;15.15;;;11.63;;
37339;SDS011;23223;51.006;7.610;2024-01-06T06:58:19;14.40;;;10.27;;
37339;SDS011;23223;51.006;7.610;2024-01-06T07:00:44;13.70;;;10.50;;
37339;SDS011;23223;51.006;7.610;2024-01-06T07:03:10;15.38;;;9.48;;
37339;SDS011;23223;51.006;7.610;2024-01-06T07:05:35;13.32;;;10.00;;
37339;SDS011;23223;51.006;7.610;2024-01-06T07:08:01;13.10;;;10.23;;
37339;SDS011;23223;51.006;7.610;2024-01-06T07:10:27;11.82;;;9.30;;
37339;SDS011;23223;51.006;7.610;2024-01-06T07:12:52;25.17;;;16.20;;
37339;SDS011;23223;51.006;7.610;2024-01-06T07:15:18;13.45;;;11.07;;
37339;SDS011;23223;51.006;7.610;2024-01-06T07:17:43;15.05;;;10.55;;
37339;SDS011;23223;51.006;7.610;2024-01-06T07:20:09;13.68;;;11.50;;
37339;SDS011;23223;51.006;7.610;2024-01-06T07:22:36;12.63;;;9.77;;
37339;SDS011;23223;51.006;7.610;2024-01-06T07:25:01;12.45;;;10.00;;
37339;SDS011;23223;51.006;7.610;2024-01-06T07:27:27;15.43;;;10.15;;
37339;SDS011;23223;51.006;7.610;2024-01-06T07:29:53;12.50;;;9.98;;
37339;SDS011;23223;51.006;7.610;2024-01-06T07:32:20;12.75;;;9.85;;
37339;SDS011;23223;51.006;7.610;2024-01-06T07:34:47;12.75;;;9.88;;
37339;SDS011;23223;51.006;7.610;2024-01-06T07:37:13;11.07;;;9.35;;
37339;SDS011;23223;51.006;7.610;2024-01-06T07:39:38;8.48;;;6.50;;
37339;SDS011;23223;51.006;7.610;2024-01-06T07:42:04;9.50;;;7.10;;
37339;SDS011;23223;51.006;7.610;2024-01-06T07:44:29;8.55;;;6.80;;
37339;SDS011;23223;51.006;7.610;2024-01-06T07:46:55;7.80;;;6.65;;
37339;SDS011;23223;51.006;7.610;2024-01-06T07:49:21;10.40;;;7.30;;
37339;SDS011;23223;51.006;7.610;2024-01-06T07:51:46;9.13;;;5.43;;
37339;SDS011;23223;51.006;7.610;2024-01-06T07:54:12;7.40;;;5.72;;
37339;SDS011;23223;51.006;7.610;2024-01-06T07:56:37;7.07;;;5.10;;
37339;SDS011;23223;51.006;7.610;2024-01-06T07:59:04;6.78;;;5.38;;
37339;SDS011;23223;51.006;7.610;2024-01-06T08:01:30;4.88;;;3.85;;
37339;SDS011;23223;51.006;7.610;2024-01-06T08:03:56;5.95;;;5.03;;
37339;SDS011;23223;51.006;7.610;2024-01-06T08:06:22;4.18;;;3.35;;
37339;SDS011;23223;51.006;7.610;2024-01-06T08:08:48;6.55;;;4.95;;
37339;SDS011;23223;51.006;7.610;2024-01-06T08:11:13;5.47;;;4.43;;
37339;SDS011;23223;51.006;7.610;2024-01-06T08:13:39;5.93;;;3.97;;
37339;SDS011;23223;51.006;7.610;2024-01-06T08:16:04;6.97;;;5.13;;
37339;SDS011;23223;51.006;7.610;2024-01-06T08:18:30;6.38;;;4.38;;
37339;SDS011;23223;51.006;7.610;2024-01-06T08:20:56;3.85;;;2.90;;
37339;SDS011;23223;51.006;7.610;2024-01-06T08:23:22;3.97;;;3.13;;
37339;SDS011;23223;51.006;7.610;2024-01-06T08:25:47;7.03;;;4.10;;
37339;SDS011;23223;51.006;7.610;2024-01-06T08:28:13;5.57;;;4.38;;
37339;SDS011;23223;51.006;7.610;2024-01-06T08:30:40;5.63;;;3.75;;
37339;SDS011;23223;51.006;7.610;2024-01-06T08:33:06;4.03;;;2.83;;
37339;SDS011;23223;51.006;7.610;2024-01-06T08:35:31;6.15;;;4.72;;
37339;SDS011;23223;51.006;7.610;2024-01-06T08:37:57;4.43;;;4.03;;
37339;SDS011;23223;51.006;7.610;2024-01-06T08:40:22;4.05;;;3.53;;
37339;SDS011;23223;51.006;7.610;2024-01-06T08:42:49;5.95;;;4.50;;
37339;SDS011;23223;51.006;7.610;2024-01-06T08:45:14;2.78;;;2.50;;
37339;SDS011;23223;51.006;7.610;2024-01-06T08:47:40;7.43;;;5.10;;
37339;SDS011;23223;51.006;7.610;2024-01-06T08:50:06;5.30;;;4.38;;
37339;SDS011;23223;51.006;7.610;2024-01-06T08:52:32;4.00;;;3.50;;
37339;SDS011;23223;51.006;7.610;2024-01-06T08:54:58;5.40;;;4.65;;
37339;SDS011;23223;51.006;7.610;2024-01-06T08:57:23;5.90;;;4.68;;
37339;SDS011;23223;51.006;7.610;2024-01-06T08:59:49;5.70;;;4.50;;
37339;SDS011;23223;51.006;7.610;2024-01-06T09:02:14;6.95;;;5.20;;
37339;SDS011;23223;51.006;7.610;2024-01-06T09:04:40;4.43;;;3.55;;
37339;SDS011;23223;51.006;7.610;2024-01-06T09:07:06;5.80;;;5.05;;
37339;SDS011;23223;51.006;7.610;2024-01-06T09:09:31;6.28;;;4.90;;
37339;SDS011;23223;51.006;7.610;2024-01-06T09:11:57;9.00;;;6.07;;
37339;SDS011;23223;51.006;7.610;2024-01-06T09:14:22;7.68;;;5.43;;
37339;SDS011;23223;51.006;7.610;2024-01-06T09:16:48;4.55;;;3.88;;
37339;SDS011;23223;51.006;7.610;2024-01-06T09:19:13;2.72;;;2.47;;
37339;SDS011;23223;51.006;7.610;2024-01-06T09:21:39;7.63;;;5.47;;
37339;SDS011;23223;51.006;7.610;2024-01-06T09:24:04;10.38;;;5.75;;
37339;SDS011;23223;51.006;7.610;2024-01-06T09:26:34;29.58;;;23.60;;
37339;SDS011;23223;51.006;7.610;2024-01-06T09:29:00;11.68;;;10.25;;
37339;SDS011;23223;51.006;7.610;2024-01-06T09:31:26;7.70;;;6.40;;
37339;SDS011;23223;51.006;7.610;2024-01-06T09:33:52;7.70;;;6.32;;
37339;SDS011;23223;51.006;7.610;2024-01-06T09:36:17;13.82;;;6.93;;
37339;SDS011;23223;51.006;7.610;2024-01-06T09:38:43;6.93;;;4.95;;
37339;SDS011;23223;51.006;7.610;2024-01-06T09:41:09;12.45;;;8.93;;
37339;SDS011;23223;51.006;7.610;2024-01-06T09:43:34;6.72;;;5.25;;
37339;SDS011;23223;51.006;7.610;2024-01-06T09:46:10;15.63;;;10.55;;
37339;SDS011;23223;51.006;7.610;2024-01-06T09:48:42;9.07;;;7.10;;
37339;SDS011;23223;51.006;7.610;2024-01-06T09:51:10;8.90;;;6.90;;
37339;SDS011;23223;51.006;7.610;2024-01-06T09:53:36;7.28;;;5.63;;
37339;SDS011;23223;51.006;7.610;2024-01-06T09:56:08;10.95;;;8.32;;
37339;SDS011;23223;51.006;7.610;2024-01-06T09:58:34;7.90;;;6.03;;
37339;SDS011;23223;51.006;7.610;2024-01-06T10:01:02;11.27;;;7.80;;
37339;SDS011;23223;51.006;7.610;2024-01-06T10:03:28;8.43;;;6.55;;
37339;SDS011;23223;51.006;7.610;2024-01-06T10:05:54;13.70;;;9.48;;
37339;SDS011;23223;51.006;7.610;2024-01-06T10:08:19;15.10;;;10.70;;
37339;SDS011;23223;51.006;7.610;2024-01-06T10:10:45;9.45;;;6.55;;
37339;SDS011;23223;51.006;7.610;2024-01-06T10:13:10;10.82;;;7.47;;
37339;SDS011;23223;51.006;7.610;2024-01-06T10:15:36;16.10;;;9.70;;
37339;SDS011;23223;51.006;7.610;2024-01-06T10:18:02;21.63;;;12.30;;
37339;SDS011;23223;51.006;7.610;2024-01-06T10:20:28;22.00;;;12.65;;
37339;SDS011;23223;51.006;7.610;2024-01-06T10:22:54;23.40;;;13.38;;
37339;SDS011;23223;51.006;7.610;2024-01-06T10:25:21;16.30;;;9.77;;
37339;SDS011;23223;51.006;7.610;2024-01-06T10:27:49;10.65;;;7.00;;
37339;SDS011;23223;51.006;7.610;2024-01-06T10:30:18;13.10;;;9.32;;
37339;SDS011;23223;51.006;7.610;2024-01-06T10:32:43;16.02;;;11.25;;
37339;SDS011;23223;51.006;7.610;2024-01-06T10:35:09;12.77;;;8.85;;
37339;SDS011;23223;51.006;7.610;2024-01-06T10:37:35;31.13;;;16.98;;
37339;SDS011;23223;51.006;7.610;2024-01-06T10:40:15;18.15;;;11.05;;
37339;SDS011;23223;51.006;7.610;2024-01-06T10:42:41;20.20;;;11.02;;
37339;SDS011;23223;51.006;7.610;2024-01-06T10:45:08;10.02;;;6.95;;
37339;SDS011;23223;51.006;7.610;2024-01-06T10:47:39;14.68;;;10.25;;
37339;SDS011;23223;51.006;7.610;2024-01-06T10:50:06;12.13;;;8.20;;
37339;SDS011;23223;51.006;7.610;2024-01-06T10:52:35;14.45;;;9.00;;
37339;SDS011;23223;51.006;7.610;2024-01-06T10:55:03;17.10;;;10.85;;
37339;SDS011;23223;51.006;7.610;2024-01-06T10:57:30;17.42;;;9.10;;
37339;SDS011;23223;51.006;7.610;2024-01-06T10:59:59;11.07;;;7.35;;
37339;SDS011;23223;51.006;7.610;2024-01-06T11:02:26;16.20;;;9.82;;
37339;SDS011;23223;51.006;7.610;2024-01-06T11:04:52;21.73;;;9.80;;
37339;SDS011;23223;51.006;7.610;2024-01-06T11:07:18;14.50;;;9.07;;
37339;SDS011;23223;51.006;7.610;2024-01-06T11:09:59;22.45;;;11.57;;
37339;SDS011;23223;51.006;7.610;2024-01-06T11:12:31;14.25;;;10.77;;
37339;SDS011;23223;51.006;7.610;2024-01-06T11:14:56;10.23;;;7.75;;
37339;SDS011;23223;51.006;7.610;2024-01-06T11:20:23;13.52;;;9.38;;
37339;SDS011;23223;51.006;7.610;2024-01-06T11:22:50;12.07;;;7.38;;
37339;SDS011;23223;51.006;7.610;2024-01-06T11:25:16;11.27;;;7.55;;
37339;SDS011;23223;51.006;7.610;2024-01-06T11:27:45;8.93;;;6.25;;
37339;SDS011;23223;51.006;7.610;2024-01-06T11:30:29;12.40;;;9.10;;
37339;SDS011;23223;51.006;7.610;2024-01-06T11:32:56;12.60;;;8.68;;
37339;SDS011;23223;51.006;7.610;2024-01-06T11:35:25;8.50;;;6.32;;
37339;SDS011;23223;51.006;7.610;2024-01-06T11:37:55;13.35;;;9.40;;
37339;SDS011;23223;51.006;7.610;2024-01-06T11:42:56;11.63;;;8.63;;
37339;SDS011;23223;51.006;7.610;2024-01-06T11:45:32;13.10;;;7.63;;
37339;SDS011;23223;51.006;7.610;2024-01-06T11:48:00;10.35;;;7.05;;
37339;SDS011;23223;51.006;7.610;2024-01-06T11:50:28;11.43;;;8.52;;
37339;SDS011;23223;51.006;7.610;2024-01-06T11:53:02;12.32;;;9.68;;
37339;SDS011;23223;51.006;7.610;2024-01-06T11:55:28;14.55;;;10.18;;
37339;SDS011;23223;51.006;7.610;2024-01-06T11:57:57;13.85;;;8.85;;
37339;SDS011;23223;51.006;7.610;2024-01-06T12:00:26;12.60;;;8.95;;
37339;SDS011;23223;51.006;7.610;2024-01-06T12:02:59;12.57;;;9.45;;
37339;SDS011;23223;51.006;7.610;2024-01-06T12:05:26;11.38;;;7.95;;
37339;SDS011;23223;51.006;7.610;2024-01-06T12:07:56;12.43;;;9.20;;
37339;SDS011;23223;51.006;7.610;2024-01-06T12:10:23;13.18;;;9.95;;
37339;SDS011;23223;51.006;7.610;2024-01-06T12:12:59;12.40;;;8.32;;
37339;SDS011;23223;51.006;7.610;2024-01-06T12:15:27;11.90;;;9.10;;
37339;SDS011;23223;51.006;7.610;2024-01-06T12:17:53;11.57;;;7.93;;
37339;SDS011;23223;51.006;7.610;2024-01-06T12:20:20;10.63;;;8.10;;
37339;SDS011;23223;51.006;7.610;2024-01-06T12:22:47;11.50;;;7.43;;
37339;SDS011;23223;51.006;7.610;2024-01-06T12:25:14;13.18;;;8.73;;
37339;SDS011;23223;51.006;7.610;2024-01-06T12:27:44;11.13;;;7.47;;
37339;SDS011;23223;51.006;7.610;2024-01-06T12:30:13;10.70;;;7.95;;
37339;SDS011;23223;51.006;7.610;2024-01-06T12:32:44;12.00;;;8.60;;
37339;SDS011;23223;51.006;7.610;2024-01-06T12:35:14;13.73;;;8.93;;
37339;SDS011;23223;51.006;7.610;2024-01-06T12:37:43;10.85;;;8.35;;
37339;SDS011;23223;51.006;7.610;2024-01-06T12:40:12;10.80;;;8.00;;
37339;SDS011;23223;51.006;7.610;2024-01-06T12:42:41;10.63;;;7.80;;
37339;SDS011;23223;51.006;7.610;2024-01-06T12:45:07;16.85;;;11.85;;
37339;SDS011;23223;51.006;7.610;2024-01-06T12:47:33;13.43;;;8.55;;
37339;SDS011;23223;51.006;7.610;2024-01-06T12:49:59;13.73;;;8.23;;
37339;SDS011;23223;51.006;7.610;2024-01-06T12:52:24;15.48;;;8.85;;
37339;SDS011;23223;51.006;7.610;2024-01-06T12:54:50;11.30;;;7.43;;
37339;SDS011;23223;51.006;7.610;2024-01-06T12:57:16;12.20;;;8.18;;
37339;SDS011;23223;51.006;7.610;2024-01-06T12:59:41;11.18;;;7.50;;
37339;SDS011;23223;51.006;7.610;2024-01-06T13:02:07;9.75;;;7.18;;
37339;SDS011;23223;51.006;7.610;2024-01-06T13:04:33;9.88;;;6.93;;
37339;SDS011;23223;51.006;7.610;2024-01-06T13:06:59;13.35;;;8.63;;
37339;SDS011;23223;51.006;7.610;2024-01-06T13:09:25;10.27;;;6.90;;
37339;SDS011;23223;51.006;7.610;2024-01-06T13:11:52;10.20;;;7.50;;
37339;SDS011;23223;51.006;7.610;2024-01-06T13:14:20;12.35;;;7.28;;
37339;SDS011;23223;51.006;7.610;2024-01-06T13:16:46;12.45;;;8.77;;
37339;SDS011;23223;51.006;7.610;2024-01-06T13:19:11;13.88;;;9.10;;
37339;SDS011;23223;51.006;7.610;2024-01-06T13:21:37;12.48;;;8.63;;
37339;SDS011;23223;51.006;7.610;2024-01-06T13:24:04;15.38;;;8.52;;
37339;SDS011;23223;51.006;7.610;2024-01-06T13:26:34;12.25;;;9.05;;
37339;SDS011;23223;51.006;7.610;2024-01-06T13:29:00;11.45;;;7.90;;
37339;SDS011;23223;51.006;7.610;2024-01-06T13:31:27;12.65;;;7.72;;
37339;SDS011;23223;51.006;7.610;2024-01-06T13:33:54;12.23;;;7.70;;
37339;SDS011;23223;51.006;7.610;2024-01-06T13:36:20;13.70;;;9.93;;
37339;SDS011;23223;51.006;7.610;2024-01-06T13:38:46;11.85;;;9.13;;
37339;SDS011;23223;51.006;7.610;2024-01-06T13:41:13;14.43;;;9.80;;
37339;SDS011;23223;51.006;7.610;2024-01-06T13:43:39;14.35;;;10.00;;
37339;SDS011;23223;51.006;7.610;2024-01-06T13:46:05;14.65;;;9.63;;
37339;SDS011;23223;51.006;7.610;2024-01-06T13:48:30;16.27;;;9.23;;
37339;SDS011;23223;51.006;7.610;2024-01-06T13:50:56;9.32;;;6.97;;
37339;SDS011;23223;51.006;7.610;2024-01-06T13:53:23;15.15;;;10.05;;
37339;SDS011;23223;51.006;7.610;2024-01-06T13:55:49;13.45;;;9.30;;
37339;SDS011;23223;51.006;7.610;2024-01-06T13:58:15;13.93;;;10.25;;
37339;SDS011;23223;51.006;7.610;2024-01-06T14:00:42;16.00;;;9.57;;
37339;SDS011;23223;51.006;7.610;2024-01-06T14:03:08;14.27;;;8.65;;
37339;SDS011;23223;51.006;7.610;2024-01-06T14:05:34;17.27;;;9.73;;
37339;SDS011;23223;51.006;7.610;2024-01-06T14:08:00;9.77;;;7.88;;
37339;SDS011;23223;51.006;7.610;2024-01-06T14:10:26;11.82;;;8.27;;
37339;SDS011;23223;51.006;7.610;2024-01-06T14:12:52;14.55;;;9.20;;
37339;SDS011;23223;51.006;7.610;2024-01-06T14:15:19;16.30;;;10.15;;
37339;SDS011;23223;51.006;7.610;2024-01-06T14:17:44;15.85;;;9.43;;
37339;SDS011;23223;51.006;7.610;2024-01-06T14:20:14;13.02;;;8.82;;
37339;SDS011;23223;51.006;7.610;2024-01-06T14:22:42;13.73;;;8.60;;
37339;SDS011;23223;51.006;7.610;2024-01-06T14:25:08;12.40;;;8.10;;
37339;SDS011;23223;51.006;7.610;2024-01-06T14:27:34;14.43;;;10.07;;
37339;SDS011;23223;51.006;7.610;2024-01-06T14:30:00;19.02;;;11.10;;
37339;SDS011;23223;51.006;7.610;2024-01-06T14:32:26;19.95;;;12.02;;
37339;SDS011;23223;51.006;7.610;2024-01-06T14:34:51;12.98;;;8.02;;
37339;SDS011;23223;51.006;7.610;2024-01-06T14:37:17;13.32;;;8.30;;
37339;SDS011;23223;51.006;7.610;2024-01-06T14:39:43;13.43;;;8.85;;
37339;SDS011;23223;51.006;7.610;2024-01-06T14:42:08;16.50;;;10.75;;